createdAt,value
2019-04-30T00:00:09.977Z,979.44
2019-04-30T00:01:15.109Z,979.55
2019-04-30T00:02:06.133Z,979.50
2019-04-30T00:03:11.414Z,979.52
2019-04-30T00:04:06.179Z,979.50
2019-04-30T00:05:09.924Z,979.50
2019-04-30T00:06:07.883Z,979.36
2019-04-30T00:07:10.103Z,979.53
2019-04-30T00:08:06.313Z,979.36
2019-04-30T00:09:14.964Z,979.44
2019-04-30T00:10:06.497Z,979.53
2019-04-30T00:11:06.034Z,979.50
2019-04-30T00:12:06.064Z,979.58
2019-04-30T00:13:10.385Z,979.30
2019-04-30T00:14:06.092Z,979.33
2019-04-30T00:15:10.866Z,979.39
2019-04-30T00:16:06.048Z,979.41
2019-04-30T00:17:10.622Z,979.47
2019-04-30T00:18:06.111Z,979.42
2019-04-30T00:19:10.501Z,979.39
2019-04-30T00:20:05.995Z,979.44
2019-04-30T00:21:14.993Z,979.39
2019-04-30T00:22:06.143Z,979.31
2019-04-30T00:23:06.068Z,979.45
2019-04-30T00:24:10.684Z,979.36
2019-04-30T00:25:06.037Z,979.25
2019-04-30T00:26:10.741Z,979.42
2019-04-30T00:27:06.035Z,979.48
2019-04-30T00:28:09.106Z,979.39
2019-04-30T00:29:06.054Z,979.39
2019-04-30T00:30:09.455Z,979.42
2019-04-30T00:31:06.033Z,979.45
2019-04-30T00:32:08.347Z,979.42
2019-04-30T00:33:06.213Z,979.34
2019-04-30T00:34:06.027Z,979.45
2019-04-30T00:35:15.239Z,979.31
2019-04-30T00:36:06.017Z,979.28
2019-04-30T00:37:13.730Z,979.51
2019-04-30T00:38:06.008Z,979.34
2019-04-30T00:39:16.218Z,979.43
2019-04-30T00:40:06.017Z,979.51
2019-04-30T00:41:10.104Z,979.40
2019-04-30T00:42:06.051Z,979.31
2019-04-30T00:43:09.662Z,979.37
2019-04-30T00:44:06.053Z,979.37
2019-04-30T00:45:10.212Z,979.57
2019-04-30T00:46:06.071Z,979.38
2019-04-30T00:47:08.663Z,979.55
2019-04-30T00:48:06.444Z,979.46
2019-04-30T00:49:16.579Z,979.44
2019-04-30T00:50:06.026Z,979.32
2019-04-30T00:51:13.872Z,979.35
2019-04-30T00:52:05.983Z,979.47
2019-04-30T00:53:14.349Z,979.44
2019-04-30T00:54:06.114Z,979.30
2019-04-30T00:55:09.470Z,979.36
2019-04-30T00:56:06.137Z,979.36
2019-04-30T00:57:08.055Z,979.27
2019-04-30T00:58:06.345Z,979.36
2019-04-30T00:59:10.707Z,979.33
2019-04-30T01:00:06.049Z,979.36
2019-04-30T01:01:08.490Z,979.30
2019-04-30T01:02:06.477Z,979.25
2019-04-30T01:03:10.212Z,979.36
2019-04-30T01:04:06.088Z,979.39
2019-04-30T01:05:09.434Z,979.28
2019-04-30T01:06:06.012Z,979.17
2019-04-30T01:07:09.036Z,979.28
2019-04-30T01:08:07.447Z,979.20
2019-04-30T01:09:09.059Z,979.28
2019-04-30T01:10:06.083Z,979.26
2019-04-30T01:11:09.841Z,979.14
2019-04-30T01:12:05.948Z,979.17
2019-04-30T01:13:12.104Z,979.20
2019-04-30T01:14:06.052Z,979.17
2019-04-30T01:15:14.386Z,979.12
2019-04-30T01:16:06.062Z,979.06
2019-04-30T01:17:12.210Z,979.21
2019-04-30T01:18:06.045Z,979.12
2019-04-30T01:19:21.232Z,979.18
2019-04-30T01:20:06.026Z,979.15
2019-04-30T01:21:11.185Z,979.04
2019-04-30T01:22:06.053Z,979.16
2019-04-30T01:23:11.425Z,979.38
2019-04-30T01:24:06.078Z,979.07
2019-04-30T01:25:13.544Z,979.19
2019-04-30T01:26:06.067Z,979.02
2019-04-30T01:27:10.912Z,979.08
2019-04-30T01:28:05.925Z,978.96
2019-04-30T01:29:06.096Z,979.02
2019-04-30T01:30:06.062Z,978.94
2019-04-30T01:31:06.072Z,979.02
2019-04-30T01:32:20.472Z,978.91
2019-04-30T01:33:06.097Z,979.05
2019-04-30T01:34:14.090Z,979.05
2019-04-30T01:35:06.076Z,979.00
2019-04-30T01:36:13.299Z,979.00
2019-04-30T01:37:06.073Z,979.20
2019-04-30T01:38:12.676Z,978.94
2019-04-30T01:39:05.953Z,979.05
2019-04-30T01:40:13.738Z,979.00
2019-04-30T01:41:06.054Z,979.00
2019-04-30T01:42:11.918Z,979.00
2019-04-30T01:43:06.076Z,979.14
2019-04-30T01:44:12.214Z,978.97
2019-04-30T01:45:06.094Z,978.92
2019-04-30T01:46:13.940Z,978.98
2019-04-30T01:47:06.114Z,978.92
2019-04-30T01:48:12.826Z,978.89
2019-04-30T01:49:06.100Z,979.03
2019-04-30T01:50:06.113Z,978.98
2019-04-30T01:51:06.112Z,979.12
2019-04-30T01:52:06.102Z,979.06
2019-04-30T01:53:13.227Z,978.98
2019-04-30T01:54:06.101Z,979.01
2019-04-30T01:55:06.090Z,979.04
2019-04-30T01:56:06.103Z,978.95
2019-04-30T01:57:06.066Z,979.12
2019-04-30T01:58:08.670Z,979.12
2019-04-30T01:59:06.083Z,978.96
2019-04-30T02:00:06.093Z,979.01
2019-04-30T02:01:06.084Z,979.24
2019-04-30T02:02:06.106Z,979.07
2019-04-30T02:03:11.648Z,979.07
2019-04-30T02:04:06.123Z,979.07
2019-04-30T02:05:06.161Z,979.10
2019-04-30T02:06:06.076Z,979.05
2019-04-30T02:07:06.111Z,979.16
2019-04-30T02:08:06.127Z,978.91
2019-04-30T02:09:06.112Z,979.02
2019-04-30T02:10:06.106Z,978.91
2019-04-30T02:11:06.107Z,979.05
2019-04-30T02:12:06.089Z,979.05
2019-04-30T02:13:06.100Z,979.08
2019-04-30T02:14:08.601Z,979.11
2019-04-30T02:15:06.121Z,979.14
2019-04-30T02:16:06.149Z,979.23
2019-04-30T02:17:06.114Z,979.03
2019-04-30T02:18:06.132Z,979.09
2019-04-30T02:19:06.130Z,979.17
2019-04-30T02:20:06.134Z,979.00
2019-04-30T02:21:06.133Z,979.00
2019-04-30T02:22:06.121Z,979.20
2019-04-30T02:23:06.124Z,979.18
2019-04-30T02:24:06.136Z,979.20
2019-04-30T02:25:06.117Z,979.04
2019-04-30T02:26:06.126Z,979.04
2019-04-30T02:27:06.158Z,978.98
2019-04-30T02:28:06.101Z,979.04
2019-04-30T02:29:06.141Z,979.01
2019-04-30T02:30:11.724Z,979.04
2019-04-30T02:31:06.139Z,979.13
2019-04-30T02:32:06.143Z,978.99
2019-04-30T02:33:06.167Z,979.16
2019-04-30T02:34:06.188Z,979.10
2019-04-30T02:35:06.167Z,979.13
2019-04-30T02:36:06.138Z,979.10
2019-04-30T02:37:06.166Z,979.02
2019-04-30T02:38:06.139Z,978.99
2019-04-30T02:39:06.126Z,978.91
2019-04-30T02:40:06.153Z,978.99
2019-04-30T02:41:06.173Z,979.08
2019-04-30T02:42:06.170Z,978.97
2019-04-30T02:43:09.845Z,979.05
2019-04-30T02:44:06.113Z,978.91
2019-04-30T02:45:06.204Z,979.02
2019-04-30T02:46:10.031Z,979.00
2019-04-30T02:47:06.158Z,978.97
2019-04-30T02:48:06.266Z,979.06
2019-04-30T02:49:06.173Z,978.94
2019-04-30T02:50:21.705Z,978.95
2019-04-30T02:51:06.141Z,979.00
2019-04-30T02:52:06.161Z,979.12
2019-04-30T02:53:06.131Z,979.09
2019-04-30T02:54:06.212Z,979.06
2019-04-30T02:55:06.167Z,979.06
2019-04-30T02:56:06.233Z,979.04
2019-04-30T02:57:06.142Z,979.01
2019-04-30T02:58:06.144Z,978.98
2019-04-30T02:59:06.195Z,979.04
2019-04-30T03:00:06.258Z,978.99
2019-04-30T03:01:06.161Z,979.01
2019-04-30T03:02:06.235Z,978.88
2019-04-30T03:03:06.184Z,979.02
2019-04-30T03:04:06.187Z,979.13
2019-04-30T03:05:06.200Z,979.05
2019-04-30T03:06:06.167Z,979.19
2019-04-30T03:07:06.207Z,978.93
2019-04-30T03:08:10.063Z,979.05
2019-04-30T03:09:06.196Z,978.99
2019-04-30T03:10:06.206Z,979.08
2019-04-30T03:11:06.147Z,978.97
2019-04-30T03:12:06.205Z,979.02
2019-04-30T03:13:06.178Z,979.11
2019-04-30T03:14:06.180Z,979.08
2019-04-30T03:15:06.156Z,979.08
2019-04-30T03:16:06.163Z,979.08
2019-04-30T03:17:06.185Z,979.00
2019-04-30T03:18:09.149Z,979.06
2019-04-30T03:19:06.153Z,979.09
2019-04-30T03:20:06.191Z,979.12
2019-04-30T03:21:06.182Z,979.14
2019-04-30T03:22:06.293Z,979.09
2019-04-30T03:23:06.173Z,979.15
2019-04-30T03:24:06.215Z,979.04
2019-04-30T03:25:06.223Z,979.12
2019-04-30T03:26:06.188Z,979.18
2019-04-30T03:27:06.223Z,978.87
2019-04-30T03:28:06.293Z,979.18
2019-04-30T03:29:06.297Z,978.95
2019-04-30T03:30:06.218Z,978.98
2019-04-30T03:31:06.195Z,979.15
2019-04-30T03:32:06.218Z,979.07
2019-04-30T03:33:06.220Z,979.10
2019-04-30T03:34:24.679Z,979.15
2019-04-30T03:35:06.207Z,979.21
2019-04-30T03:36:06.238Z,979.13
2019-04-30T03:37:06.151Z,978.99
2019-04-30T03:38:06.210Z,978.96
2019-04-30T03:39:06.164Z,978.99
2019-04-30T03:40:06.227Z,979.02
2019-04-30T03:41:06.186Z,979.13
2019-04-30T03:42:06.228Z,979.13
2019-04-30T03:43:06.219Z,979.02
2019-04-30T03:44:24.651Z,978.99
2019-04-30T03:45:06.234Z,979.08
2019-04-30T03:46:06.194Z,979.08
2019-04-30T03:47:06.197Z,979.11
2019-04-30T03:48:06.190Z,979.05
2019-04-30T03:49:06.224Z,979.14
2019-04-30T03:50:09.669Z,979.25
2019-04-30T03:51:06.206Z,979.25
2019-04-30T03:52:06.245Z,979.20
2019-04-30T03:53:06.256Z,979.23
2019-04-30T03:54:06.202Z,979.20
2019-04-30T03:55:06.219Z,979.09
2019-04-30T03:56:06.398Z,979.20
2019-04-30T03:57:06.220Z,979.17
2019-04-30T03:58:06.225Z,979.06
2019-04-30T03:59:06.201Z,979.26
2019-04-30T04:00:06.241Z,979.04
2019-04-30T04:01:06.257Z,979.26
2019-04-30T04:02:06.212Z,979.24
2019-04-30T04:03:06.208Z,979.15
2019-04-30T04:04:06.202Z,979.21
2019-04-30T04:05:06.188Z,979.09
2019-04-30T04:06:09.693Z,979.04
2019-04-30T04:07:06.220Z,979.24
2019-04-30T04:08:06.185Z,979.24
2019-04-30T04:09:06.239Z,979.18
2019-04-30T04:10:06.243Z,979.38
2019-04-30T04:11:06.206Z,979.15
2019-04-30T04:12:06.214Z,979.26
2019-04-30T04:13:06.270Z,979.23
2019-04-30T04:14:06.250Z,979.29
2019-04-30T04:15:06.296Z,979.43
2019-04-30T04:16:06.223Z,979.29
2019-04-30T04:17:06.199Z,979.46
2019-04-30T04:18:06.239Z,979.38
2019-04-30T04:19:06.246Z,979.41
2019-04-30T04:20:06.213Z,979.43
2019-04-30T04:21:16.602Z,979.35
2019-04-30T04:22:06.267Z,979.32
2019-04-30T04:23:06.239Z,979.43
2019-04-30T04:24:06.242Z,979.44
2019-04-30T04:25:06.203Z,979.35
2019-04-30T04:26:06.240Z,979.43
2019-04-30T04:27:06.214Z,979.41
2019-04-30T04:28:06.207Z,979.35
2019-04-30T04:29:06.222Z,979.46
2019-04-30T04:30:06.241Z,979.32
2019-04-30T04:31:06.234Z,979.41
2019-04-30T04:32:06.230Z,979.55
2019-04-30T04:33:06.202Z,979.46
2019-04-30T04:34:06.244Z,979.52
2019-04-30T04:35:06.239Z,979.54
2019-04-30T04:36:06.258Z,979.49
2019-04-30T04:37:06.254Z,979.43
2019-04-30T04:38:06.243Z,979.54
2019-04-30T04:39:06.271Z,979.51
2019-04-30T04:40:06.290Z,979.54
2019-04-30T04:41:06.219Z,979.42
2019-04-30T04:42:06.254Z,979.53
2019-04-30T04:43:06.257Z,979.53
2019-04-30T04:44:06.269Z,979.55
2019-04-30T04:45:06.249Z,979.55
2019-04-30T04:46:06.246Z,979.57
2019-04-30T04:47:06.286Z,979.53
2019-04-30T04:48:06.302Z,979.58
2019-04-30T04:49:06.291Z,979.52
2019-04-30T04:50:06.286Z,979.43
2019-04-30T04:51:06.277Z,979.59
2019-04-30T04:52:06.278Z,979.72
2019-04-30T04:53:11.470Z,979.51
2019-04-30T04:54:06.269Z,979.73
2019-04-30T04:55:06.275Z,979.61
2019-04-30T04:56:06.284Z,979.66
2019-04-30T04:57:21.324Z,979.65
2019-04-30T04:58:06.267Z,979.68
2019-04-30T04:59:06.256Z,979.58
2019-04-30T05:00:10.475Z,979.75
2019-04-30T05:01:06.260Z,979.60
2019-04-30T05:02:06.251Z,979.68
2019-04-30T05:03:06.287Z,979.73
2019-04-30T05:04:11.998Z,979.72
2019-04-30T05:05:06.282Z,979.71
2019-04-30T05:06:06.313Z,979.74
2019-04-30T05:07:06.324Z,979.73
2019-04-30T05:08:06.290Z,979.86
2019-04-30T05:09:07.126Z,979.72
2019-04-30T05:10:06.260Z,979.80
2019-04-30T05:11:06.297Z,979.87
2019-04-30T05:12:06.274Z,979.92
2019-04-30T05:13:06.322Z,979.86
2019-04-30T05:14:06.267Z,979.84
2019-04-30T05:15:06.342Z,979.83
2019-04-30T05:16:06.290Z,979.74
2019-04-30T05:17:06.292Z,979.87
2019-04-30T05:18:06.253Z,979.92
2019-04-30T05:19:06.260Z,979.84
2019-04-30T05:20:06.278Z,979.84
2019-04-30T05:21:06.289Z,979.88
2019-04-30T05:22:06.269Z,979.83
2019-04-30T05:23:06.329Z,979.85
2019-04-30T05:24:06.320Z,979.79
2019-04-30T05:25:06.324Z,979.86
2019-04-30T05:26:06.268Z,979.89
2019-04-30T05:27:06.301Z,979.81
2019-04-30T05:28:06.333Z,979.80
2019-04-30T05:29:06.267Z,979.88
2019-04-30T05:30:06.327Z,979.82
2019-04-30T05:31:06.300Z,979.87
2019-04-30T05:32:06.329Z,979.89
2019-04-30T05:33:06.291Z,979.89
2019-04-30T05:34:09.955Z,979.91
2019-04-30T05:35:10.761Z,980.02
2019-04-30T05:36:06.323Z,979.94
2019-04-30T05:37:06.321Z,980.05
2019-04-30T05:38:06.344Z,979.96
2019-04-30T05:39:06.334Z,979.99
2019-04-30T05:40:06.285Z,979.98
2019-04-30T05:41:06.299Z,980.10
2019-04-30T05:42:06.299Z,980.04
2019-04-30T05:43:11.629Z,980.04
2019-04-30T05:44:06.320Z,980.03
2019-04-30T05:45:06.348Z,980.15
2019-04-30T05:46:06.300Z,980.12
2019-04-30T05:47:06.279Z,980.08
2019-04-30T05:48:06.294Z,980.05
2019-04-30T05:49:06.340Z,980.02
2019-04-30T05:50:06.347Z,980.11
2019-04-30T05:51:06.321Z,980.11
2019-04-30T05:52:06.356Z,980.13
2019-04-30T05:53:06.340Z,980.02
2019-04-30T05:54:09.518Z,980.02
2019-04-30T05:55:06.306Z,980.05
2019-04-30T05:56:06.367Z,980.02
2019-04-30T05:57:06.315Z,980.07
2019-04-30T05:58:06.327Z,980.13
2019-04-30T05:59:06.341Z,980.02
2019-04-30T06:00:06.302Z,980.10
2019-04-30T06:01:06.371Z,980.24
2019-04-30T06:02:06.389Z,979.99
2019-04-30T06:03:06.360Z,979.93
2019-04-30T06:04:06.321Z,980.01
2019-04-30T06:05:06.340Z,980.10
2019-04-30T06:06:06.324Z,980.07
2019-04-30T06:07:06.339Z,980.10
2019-04-30T06:08:06.382Z,980.10
2019-04-30T06:09:16.142Z,980.07
2019-04-30T06:10:06.498Z,980.16
2019-04-30T06:11:06.332Z,980.01
2019-04-30T06:12:08.875Z,979.95
2019-04-30T06:13:06.181Z,980.01
2019-04-30T06:14:06.371Z,980.06
2019-04-30T06:15:08.960Z,980.12
2019-04-30T06:16:06.161Z,980.03
2019-04-30T06:17:06.349Z,980.12
2019-04-30T06:18:13.835Z,980.06
2019-04-30T06:19:08.062Z,980.14
2019-04-30T06:20:18.982Z,980.12
2019-04-30T06:21:06.155Z,980.04
2019-04-30T06:22:10.837Z,980.23
2019-04-30T06:23:06.345Z,980.23
2019-04-30T06:24:06.349Z,980.10
2019-04-30T06:25:06.412Z,980.13
2019-04-30T06:26:12.836Z,980.11
2019-04-30T06:27:06.377Z,980.14
2019-04-30T06:28:06.374Z,980.11
2019-04-30T06:29:06.392Z,980.13
2019-04-30T06:30:06.377Z,980.16
2019-04-30T06:31:06.343Z,980.23
2019-04-30T06:32:08.516Z,980.13
2019-04-30T06:33:06.360Z,980.18
2019-04-30T06:34:06.394Z,980.18
2019-04-30T06:35:06.381Z,980.13
2019-04-30T06:36:06.372Z,980.15
2019-04-30T06:37:06.391Z,980.07
2019-04-30T06:38:08.117Z,980.18
2019-04-30T06:39:06.414Z,980.04
2019-04-30T06:40:09.376Z,980.07
2019-04-30T06:41:06.398Z,980.18
2019-04-30T06:42:12.900Z,980.12
2019-04-30T06:43:09.914Z,980.13
2019-04-30T06:44:06.367Z,980.13
2019-04-30T06:45:06.371Z,980.26
2019-04-30T06:46:06.327Z,980.16
2019-04-30T06:47:06.398Z,980.02
2019-04-30T06:48:06.265Z,980.10
2019-04-30T06:49:06.351Z,979.99
2019-04-30T06:50:06.443Z,980.08
2019-04-30T06:51:06.352Z,980.11
2019-04-30T06:52:22.835Z,980.11
2019-04-30T06:53:06.337Z,980.27
2019-04-30T06:54:06.382Z,980.02
2019-04-30T06:55:06.386Z,980.11
2019-04-30T06:56:09.252Z,980.17
2019-04-30T06:57:06.345Z,980.28
2019-04-30T06:58:15.626Z,980.08
2019-04-30T06:59:06.341Z,980.05
2019-04-30T07:00:06.408Z,980.08
2019-04-30T07:01:06.362Z,980.14
2019-04-30T07:02:06.364Z,980.00
2019-04-30T07:03:06.375Z,980.06
2019-04-30T07:04:06.404Z,980.15
2019-04-30T07:05:06.382Z,980.09
2019-04-30T07:06:08.289Z,980.06
2019-04-30T07:07:10.155Z,980.03
2019-04-30T07:08:12.275Z,980.12
2019-04-30T07:09:06.426Z,980.06
2019-04-30T07:10:17.036Z,979.97
2019-04-30T07:11:11.415Z,980.01
2019-04-30T07:12:06.612Z,980.12
2019-04-30T07:13:06.403Z,980.04
2019-04-30T07:14:06.435Z,980.10
2019-04-30T07:15:06.367Z,980.04
2019-04-30T07:16:08.297Z,980.07
2019-04-30T07:17:06.387Z,980.13
2019-04-30T07:18:06.364Z,980.04
2019-04-30T07:19:06.389Z,980.07
2019-04-30T07:20:06.410Z,980.16
2019-04-30T07:21:08.597Z,980.01
2019-04-30T07:22:06.388Z,980.04
2019-04-30T07:23:06.401Z,980.07
2019-04-30T07:24:06.406Z,980.06
2019-04-30T07:25:06.438Z,980.12
2019-04-30T07:26:06.396Z,980.06
2019-04-30T07:27:06.402Z,979.98
2019-04-30T07:28:06.367Z,980.15
2019-04-30T07:29:06.429Z,980.09
2019-04-30T07:30:06.435Z,980.09
2019-04-30T07:31:14.741Z,980.14
2019-04-30T07:32:05.951Z,980.22
2019-04-30T07:33:06.415Z,980.14
2019-04-30T07:34:06.401Z,980.16
2019-04-30T07:35:06.435Z,980.24
2019-04-30T07:36:06.437Z,980.10
2019-04-30T07:37:23.988Z,980.24
2019-04-30T07:38:06.394Z,980.21
2019-04-30T07:39:06.380Z,980.21
2019-04-30T07:40:06.425Z,980.21
2019-04-30T07:41:06.390Z,980.21
2019-04-30T07:42:06.474Z,980.13
2019-04-30T07:43:10.296Z,980.24
2019-04-30T07:44:06.464Z,980.35
2019-04-30T07:45:06.433Z,980.16
2019-04-30T07:46:06.413Z,980.13
2019-04-30T07:47:06.392Z,980.32
2019-04-30T07:48:06.427Z,980.38
2019-04-30T07:49:06.416Z,980.23
2019-04-30T07:50:07.161Z,980.35
2019-04-30T07:51:09.746Z,980.26
2019-04-30T07:52:08.855Z,980.37
2019-04-30T07:53:10.313Z,980.49
2019-04-30T07:54:06.320Z,980.37
2019-04-30T07:55:06.464Z,980.26
2019-04-30T07:56:28.373Z,980.34
2019-04-30T07:57:06.395Z,980.17
2019-04-30T07:58:06.416Z,980.31
2019-04-30T07:59:06.416Z,980.22
2019-04-30T08:00:06.445Z,980.34
2019-04-30T08:01:06.424Z,980.28
2019-04-30T08:02:14.925Z,980.12
2019-04-30T08:03:06.342Z,980.31
2019-04-30T08:04:06.425Z,980.26
2019-04-30T08:05:06.420Z,980.29
2019-04-30T08:06:09.724Z,980.12
2019-04-30T08:07:06.374Z,980.23
2019-04-30T08:09:06.445Z,980.26
2019-04-30T08:09:39.618Z,980.29
2019-04-30T08:10:08.243Z,980.26
2019-04-30T08:11:06.450Z,980.15
2019-04-30T08:12:08.507Z,980.37
2019-04-30T08:13:14.293Z,980.31
2019-04-30T08:14:07.036Z,980.25
2019-04-30T08:15:10.056Z,980.25
2019-04-30T08:16:06.453Z,980.31
2019-04-30T08:17:06.453Z,980.22
2019-04-30T08:18:06.434Z,980.25
2019-04-30T08:19:06.440Z,980.33
2019-04-30T08:20:08.527Z,980.22
2019-04-30T08:21:06.445Z,980.31
2019-04-30T08:22:06.441Z,980.31
2019-04-30T08:23:33.036Z,980.33
2019-04-30T08:24:06.435Z,980.22
2019-04-30T08:25:06.419Z,980.25
2019-04-30T08:26:06.452Z,980.28
2019-04-30T08:27:06.305Z,980.36
2019-04-30T08:28:09.440Z,980.28
2019-04-30T08:29:06.454Z,980.34
2019-04-30T08:30:25.723Z,980.31
2019-04-30T08:31:06.427Z,980.40
2019-04-30T08:32:08.846Z,980.40
2019-04-30T08:33:06.216Z,980.34
2019-04-30T08:34:06.482Z,980.46
2019-04-30T08:35:06.479Z,980.46
2019-04-30T08:36:06.484Z,980.28
2019-04-30T08:37:20.079Z,980.43
2019-04-30T08:38:06.361Z,980.40
2019-04-30T08:39:06.497Z,980.34
2019-04-30T08:40:08.512Z,980.40
2019-04-30T08:41:06.432Z,980.37
2019-04-30T08:42:06.453Z,980.45
2019-04-30T08:43:11.118Z,980.30
2019-04-30T08:44:06.240Z,980.42
2019-04-30T08:45:06.473Z,980.39
2019-04-30T08:46:06.470Z,980.39
2019-04-30T08:47:08.164Z,980.44
2019-04-30T08:48:06.142Z,980.45
2019-04-30T08:49:08.815Z,980.36
2019-04-30T08:50:06.655Z,980.31
2019-04-30T08:51:06.481Z,980.36
2019-04-30T08:52:06.506Z,980.31
2019-04-30T08:53:06.546Z,980.42
2019-04-30T08:54:06.532Z,980.39
2019-04-30T08:55:17.192Z,980.36
2019-04-30T08:56:06.577Z,980.25
2019-04-30T08:57:08.488Z,980.33
2019-04-30T08:58:14.851Z,980.39
2019-04-30T08:59:08.397Z,980.42
2019-04-30T09:00:06.275Z,980.53
2019-04-30T09:01:08.256Z,980.30
2019-04-30T09:02:16.562Z,980.44
2019-04-30T09:03:06.523Z,980.38
2019-04-30T09:04:08.096Z,980.36
2019-04-30T09:05:06.490Z,980.41
2019-04-30T09:06:06.498Z,980.35
2019-04-30T09:07:08.616Z,980.44
2019-04-30T09:08:06.251Z,980.44
2019-04-30T09:09:06.494Z,980.53
2019-04-30T09:10:06.478Z,980.42
2019-04-30T09:11:06.480Z,980.42
2019-04-30T09:12:06.487Z,980.42
2019-04-30T09:13:06.502Z,980.33
2019-04-30T09:14:08.920Z,980.44
2019-04-30T09:15:06.506Z,980.41
2019-04-30T09:16:06.488Z,980.27
2019-04-30T09:17:06.512Z,980.44
2019-04-30T09:18:12.786Z,980.33
2019-04-30T09:19:06.487Z,980.44
2019-04-30T09:20:06.531Z,980.44
2019-04-30T09:21:08.956Z,980.39
2019-04-30T09:22:15.363Z,980.30
2019-04-30T09:23:06.484Z,980.39
2019-04-30T09:24:06.548Z,980.30
2019-04-30T09:25:06.510Z,980.36
2019-04-30T09:26:08.446Z,980.36
2019-04-30T09:27:06.491Z,980.50
2019-04-30T09:28:08.544Z,980.53
2019-04-30T09:29:09.300Z,980.30
2019-04-30T09:30:06.539Z,980.41
2019-04-30T09:31:08.555Z,980.41
2019-04-30T09:32:06.491Z,980.52
2019-04-30T09:33:06.748Z,980.41
2019-04-30T09:34:18.446Z,980.29
2019-04-30T09:35:06.539Z,980.41
2019-04-30T09:36:06.534Z,980.38
2019-04-30T09:37:08.223Z,980.41
2019-04-30T09:38:06.529Z,980.32
2019-04-30T09:39:08.764Z,980.43
2019-04-30T09:40:18.960Z,980.32
2019-04-30T09:41:06.525Z,980.46
2019-04-30T09:42:06.500Z,980.57
2019-04-30T09:43:10.325Z,980.43
2019-04-30T09:44:06.359Z,980.46
2019-04-30T09:45:09.166Z,980.55
2019-04-30T09:46:26.113Z,980.40
2019-04-30T09:47:06.520Z,980.32
2019-04-30T09:48:06.350Z,980.34
2019-04-30T09:49:06.522Z,980.34
2019-04-30T09:50:06.554Z,980.34
2019-04-30T09:51:07.496Z,980.28
2019-04-30T09:52:06.626Z,980.37
2019-04-30T09:53:06.588Z,980.34
2019-04-30T09:54:09.886Z,980.39
2019-04-30T09:55:06.136Z,980.28
2019-04-30T09:56:06.533Z,980.36
2019-04-30T09:57:06.546Z,980.36
2019-04-30T09:58:20.776Z,980.33
2019-04-30T09:59:06.521Z,980.44
2019-04-30T10:00:06.558Z,980.59
2019-04-30T10:01:09.728Z,980.38
2019-04-30T10:02:09.502Z,980.29
2019-04-30T10:03:09.642Z,980.41
2019-04-30T10:04:07.894Z,980.44
2019-04-30T10:05:06.899Z,980.38
2019-04-30T10:06:06.580Z,980.38
2019-04-30T10:07:06.569Z,980.35
2019-04-30T10:08:06.593Z,980.29
2019-04-30T10:09:06.905Z,980.35
2019-04-30T10:10:11.376Z,980.41
2019-04-30T10:11:06.566Z,980.35
2019-04-30T10:12:06.662Z,980.18
2019-04-30T10:13:06.581Z,980.29
2019-04-30T10:14:06.586Z,980.29
2019-04-30T10:15:06.602Z,980.37
2019-04-30T10:16:06.551Z,980.31
2019-04-30T10:17:06.936Z,980.26
2019-04-30T10:18:06.569Z,980.37
2019-04-30T10:19:08.321Z,980.34
2019-04-30T10:20:06.576Z,980.12
2019-04-30T10:21:06.553Z,980.15
2019-04-30T10:22:08.405Z,980.25
2019-04-30T10:23:06.302Z,980.25
2019-04-30T10:24:15.903Z,980.25
2019-04-30T10:25:06.126Z,980.36
2019-04-30T10:26:06.569Z,980.22
2019-04-30T10:27:13.353Z,980.25
2019-04-30T10:28:06.648Z,980.11
2019-04-30T10:29:06.640Z,980.11
2019-04-30T10:30:06.580Z,980.21
2019-04-30T10:31:06.580Z,980.30
2019-04-30T10:32:08.606Z,980.14
2019-04-30T10:33:10.284Z,980.08
2019-04-30T10:34:06.627Z,980.05
2019-04-30T10:35:06.575Z,980.08
2019-04-30T10:36:06.550Z,980.17
2019-04-30T10:37:08.723Z,980.08
2019-04-30T10:38:04.464Z,980.17
2019-04-30T10:39:06.655Z,979.97
2019-04-30T10:40:06.617Z,979.99
2019-04-30T10:41:08.595Z,980.14
2019-04-30T10:42:06.321Z,979.99
2019-04-30T10:43:10.412Z,980.17
2019-04-30T10:44:06.607Z,980.08
2019-04-30T10:45:06.134Z,980.08
2019-04-30T10:46:06.619Z,979.99
2019-04-30T10:47:06.587Z,979.88
2019-04-30T10:48:06.616Z,979.94
2019-04-30T10:49:11.194Z,980.14
2019-04-30T10:50:06.310Z,980.11
2019-04-30T10:51:08.829Z,979.99
2019-04-30T10:52:06.689Z,980.13
2019-04-30T10:53:06.700Z,980.13
2019-04-30T10:54:06.440Z,980.24
2019-04-30T10:55:06.564Z,980.10
2019-04-30T10:56:06.309Z,980.10
2019-04-30T10:57:08.555Z,980.10
2019-04-30T10:58:06.997Z,980.10
2019-04-30T10:59:06.476Z,980.16
2019-04-30T11:00:07.788Z,980.16
2019-04-30T11:01:06.661Z,980.29
2019-04-30T11:02:08.925Z,980.07
2019-04-30T11:03:22.269Z,980.10
2019-04-30T11:04:06.362Z,980.10
2019-04-30T11:05:08.570Z,980.01
2019-04-30T11:06:09.258Z,980.07
2019-04-30T11:07:08.524Z,980.01
2019-04-30T11:08:06.903Z,979.85
2019-04-30T11:09:06.669Z,980.04
2019-04-30T11:10:10.735Z,980.10
2019-04-30T11:11:06.863Z,980.10
2019-04-30T11:12:06.266Z,980.04
2019-04-30T11:13:06.978Z,980.13
2019-04-30T11:14:06.320Z,980.05
2019-04-30T11:15:07.029Z,980.05
2019-04-30T11:16:15.528Z,979.94
2019-04-30T11:17:09.566Z,979.97
2019-04-30T11:18:07.462Z,980.05
2019-04-30T11:19:09.136Z,979.86
2019-04-30T11:20:07.328Z,979.91
2019-04-30T11:21:09.601Z,979.99
2019-04-30T11:22:08.025Z,980.05
2019-04-30T11:23:15.418Z,980.02
2019-04-30T11:24:09.112Z,979.93
2019-04-30T11:25:07.011Z,979.91
2019-04-30T11:26:06.967Z,979.86
2019-04-30T11:27:07.446Z,979.88
2019-04-30T11:28:08.160Z,979.77
2019-04-30T11:29:07.766Z,979.88
2019-04-30T11:30:18.349Z,979.74
2019-04-30T11:31:07.232Z,979.88
2019-04-30T11:32:07.385Z,979.83
2019-04-30T11:33:06.910Z,979.93
2019-04-30T11:34:06.328Z,979.83
2019-04-30T11:35:06.567Z,979.74
2019-04-30T11:36:06.500Z,979.90
2019-04-30T11:37:07.045Z,979.82
2019-04-30T11:38:06.540Z,979.85
2019-04-30T11:39:08.474Z,979.76
2019-04-30T11:40:06.987Z,979.85
2019-04-30T11:41:08.663Z,979.79
2019-04-30T11:42:07.725Z,979.87
2019-04-30T11:43:06.720Z,979.79
2019-04-30T11:44:06.296Z,979.84
2019-04-30T11:45:09.222Z,979.79
2019-04-30T11:46:06.917Z,979.86
2019-04-30T11:47:06.609Z,979.78
2019-04-30T11:48:06.604Z,979.81
2019-04-30T11:49:06.438Z,979.91
2019-04-30T11:50:07.760Z,980.03
2019-04-30T11:51:06.978Z,979.84
2019-04-30T11:52:06.506Z,979.69
2019-04-30T11:53:27.127Z,979.84
2019-04-30T11:54:06.487Z,979.81
2019-04-30T11:55:06.689Z,979.84
2019-04-30T11:56:06.524Z,979.84
2019-04-30T11:57:10.011Z,979.72
2019-04-30T11:58:06.308Z,979.67
2019-04-30T11:59:06.153Z,979.84
2019-04-30T12:00:11.298Z,979.79
2019-04-30T12:01:06.692Z,979.64
2019-04-30T12:02:07.953Z,979.76
2019-04-30T12:03:08.750Z,979.76
2019-04-30T12:04:08.961Z,979.61
2019-04-30T12:05:07.480Z,979.70
2019-04-30T12:06:08.323Z,979.67
2019-04-30T12:07:07.269Z,979.79
2019-04-30T12:08:06.561Z,979.86
2019-04-30T12:09:09.130Z,979.87
2019-04-30T12:10:06.575Z,979.68
2019-04-30T12:11:06.549Z,979.71
2019-04-30T12:12:09.115Z,979.71
2019-04-30T12:13:06.621Z,979.59
2019-04-30T12:14:07.331Z,979.68
2019-04-30T12:15:06.922Z,979.62
2019-04-30T12:16:08.558Z,979.71
2019-04-30T12:17:11.705Z,979.71
2019-04-30T12:18:08.275Z,979.74
2019-04-30T12:19:10.892Z,979.71
2019-04-30T12:20:10.013Z,979.74
2019-04-30T12:21:07.930Z,979.68
2019-04-30T12:22:07.097Z,979.71
2019-04-30T12:23:10.056Z,979.51
2019-04-30T12:24:06.964Z,979.65
2019-04-30T12:25:06.653Z,979.51
2019-04-30T12:26:06.659Z,979.48
2019-04-30T12:27:06.096Z,979.51
2019-04-30T12:28:06.644Z,979.56